Decoded Metar for KANJ (SAULT STE MARIE in MI, USA) (IATA:ANJ) | Meteo·Mobile Aviation Weather
aviador You're here:

KANJ Decoded Metar

SAULT STE MARIE in MI, USA
Report Time2019-06-27 07:55:00
UTC Time2019-06-27 08:54:05
Flight Rules vfr VFR
WindCalm
Visibility9999 m
Phenomena:N/A
Clouds:Few 070 Hf
Broken 085 Hf
Overcast 110 Hf
Expected CloudBase > 1,200 ft AGL from Temp-Dew spread
Ceiling8,500 ft
Temp16°C (ISA +2)
Dew Point13°C (83% RH)
QNH1018 hPa
Density Alt1,033 ft
Elevation715 ft
Report Wrong Elevation
Raw Report
KANJ 270755Z AUTO 00000KT 10SM FEW070 BKN085 OVC110 16/13 A3006
RMK AO2 RAB21E35 SLP177 P0001 T01610128=

Extra information for KANJ:More info

Metar Taf Metar & Taf Last 4 Metars F.Rules Stats Wind Profile Meteogram Temp Stats Airport Information Weather charts Add Link Nearby VenuesMetar ALERT Operation Metar Decoded Social comments

AIRNAV info for KANJ